createdAt,value
2023-04-13T00:01:16.483Z,9.10
2023-04-13T00:03:46.192Z,9.10
2023-04-13T00:06:15.063Z,8.13
2023-04-13T00:08:45.343Z,8.73
2023-04-13T00:11:14.121Z,9.52
2023-04-13T00:13:47.750Z,9.20
2023-04-13T00:16:18.043Z,8.20
2023-04-13T00:18:47.149Z,9.30
2023-04-13T00:21:17.329Z,8.93
2023-04-13T00:23:47.444Z,9.00
2023-04-13T00:26:16.795Z,8.35
2023-04-13T00:28:47.129Z,8.98
2023-04-13T00:31:16.495Z,9.15
2023-04-13T00:33:46.719Z,9.25
2023-04-13T00:36:16.852Z,9.15
2023-04-13T00:38:46.874Z,9.15
2023-04-13T00:41:19.438Z,9.65
2023-04-13T00:43:49.485Z,10.02
2023-04-13T00:46:19.565Z,10.03
2023-04-13T00:48:48.763Z,9.98
2023-04-13T00:51:18.402Z,9.65
2023-04-13T00:53:49.806Z,9.65
2023-04-13T00:56:23.108Z,9.43
2023-04-13T00:58:56.637Z,9.02
2023-04-13T01:01:26.800Z,9.68
2023-04-13T01:03:57.335Z,9.02
2023-04-13T01:06:45.464Z,9.18
2023-04-13T01:09:31.094Z,9.45
2023-04-13T01:12:39.469Z,9.63
2023-04-13T01:15:16.472Z,9.88
2023-04-13T01:18:05.387Z,9.90
2023-04-13T01:20:45.704Z,10.02
2023-04-13T01:24:17.872Z,10.43
2023-04-13T01:27:13.269Z,10.98
2023-04-13T01:29:47.160Z,9.48
2023-04-13T01:32:18.516Z,10.77
2023-04-13T01:34:50.267Z,10.73
2023-04-13T01:37:20.895Z,11.00
2023-04-13T01:39:51.000Z,12.00
2023-04-13T01:42:21.140Z,11.40
2023-04-13T01:44:51.455Z,10.82
2023-04-13T01:47:25.954Z,11.18
2023-04-13T01:50:19.569Z,11.63
2023-04-13T01:52:55.459Z,11.30
2023-04-13T01:55:26.597Z,11.60
2023-04-13T01:58:02.127Z,10.82
2023-04-13T02:00:41.096Z,11.25
2023-04-13T02:03:13.725Z,11.52
2023-04-13T02:05:43.934Z,10.98
2023-04-13T02:08:14.545Z,11.13
2023-04-13T02:10:46.456Z,10.63
2023-04-13T02:13:16.558Z,11.07
2023-04-13T02:15:47.235Z,11.40
2023-04-13T02:18:17.632Z,11.48
2023-04-13T02:20:47.718Z,12.85
2023-04-13T02:23:18.103Z,12.18
2023-04-13T02:25:48.413Z,12.35
2023-04-13T02:28:18.902Z,11.38
2023-04-13T02:30:49.153Z,12.40
2023-04-13T02:33:21.611Z,11.05
2023-04-13T02:35:52.173Z,12.50
2023-04-13T02:38:22.258Z,11.77
2023-04-13T02:41:01.532Z,13.23
2023-04-13T02:43:31.794Z,11.98
2023-04-13T02:46:01.996Z,13.38
2023-04-13T02:48:32.344Z,11.55
2023-04-13T02:51:02.525Z,12.05
2023-04-13T02:53:32.693Z,12.95
2023-04-13T02:56:02.855Z,11.57
2023-04-13T02:58:33.006Z,12.27
2023-04-13T03:01:01.566Z,11.80
2023-04-13T03:03:30.724Z,10.75
2023-04-13T03:05:58.846Z,10.50
2023-04-13T03:08:27.485Z,11.18
2023-04-13T03:10:55.278Z,9.63
2023-04-13T03:13:23.519Z,10.75
2023-04-13T03:15:52.999Z,9.88
2023-04-13T03:18:20.388Z,10.05
2023-04-13T03:20:48.892Z,9.57
2023-04-13T03:23:17.555Z,9.35
2023-04-13T03:25:46.079Z,9.43
2023-04-13T03:28:14.193Z,10.32
2023-04-13T03:30:42.494Z,9.13
2023-04-13T03:33:11.093Z,9.07
2023-04-13T03:35:39.449Z,8.43
2023-04-13T03:38:07.934Z,8.00
2023-04-13T03:40:36.276Z,7.25
2023-04-13T03:43:04.825Z,7.38
2023-04-13T03:45:33.622Z,6.75
2023-04-13T03:48:01.622Z,8.05
2023-04-13T03:50:29.914Z,7.43
2023-04-13T03:52:58.355Z,7.43
2023-04-13T03:55:27.310Z,8.00
2023-04-13T03:57:57.640Z,7.28
2023-04-13T04:00:28.168Z,8.82
2023-04-13T04:02:58.321Z,7.55
2023-04-13T04:05:28.453Z,8.32
2023-04-13T04:07:58.581Z,8.23
2023-04-13T04:10:29.070Z,7.97
2023-04-13T04:12:59.232Z,8.43
2023-04-13T04:15:29.466Z,8.90
2023-04-13T04:18:00.503Z,7.88
2023-04-13T04:20:31.200Z,7.97
2023-04-13T04:23:01.512Z,8.35
2023-04-13T04:25:33.619Z,7.60
2023-04-13T04:28:04.636Z,7.60
2023-04-13T04:30:35.273Z,6.63
2023-04-13T04:33:05.486Z,8.48
2023-04-13T04:35:34.137Z,8.00
2023-04-13T04:38:04.551Z,8.23
2023-04-13T04:40:35.971Z,8.80
2023-04-13T04:43:06.225Z,9.18
2023-04-13T04:45:38.625Z,9.18
2023-04-13T04:48:11.933Z,9.50
2023-04-13T04:50:45.110Z,9.75
2023-04-13T04:53:15.198Z,10.80
2023-04-13T04:55:46.626Z,9.82
2023-04-13T04:58:17.114Z,10.20
2023-04-13T05:00:48.119Z,9.98
2023-04-13T05:03:18.490Z,9.45
2023-04-13T05:05:48.772Z,9.10
2023-04-13T05:08:19.027Z,9.73
2023-04-13T05:10:49.446Z,9.68
2023-04-13T05:13:19.682Z,10.88
2023-04-13T05:15:50.042Z,9.73
2023-04-13T05:18:18.641Z,11.77
2023-04-13T05:20:49.693Z,10.50
2023-04-13T05:23:18.331Z,11.25
2023-04-13T05:25:46.741Z,10.75
2023-04-13T05:28:15.190Z,10.60
2023-04-13T05:30:43.607Z,10.25
2023-04-13T05:33:12.409Z,10.85
2023-04-13T05:35:40.470Z,10.23
2023-04-13T05:38:09.473Z,10.13
2023-04-13T05:40:40.027Z,9.38
2023-04-13T05:43:10.413Z,9.68
2023-04-13T05:45:40.806Z,10.20
2023-04-13T05:48:11.013Z,9.13
2023-04-13T05:50:41.147Z,9.65
2023-04-13T05:53:11.375Z,9.10
2023-04-13T05:55:45.682Z,9.90
2023-04-13T05:58:19.337Z,9.90
2023-04-13T06:00:49.718Z,8.88
2023-04-13T06:03:20.860Z,9.27
2023-04-13T06:05:53.233Z,8.82
2023-04-13T06:08:23.949Z,8.20
2023-04-13T06:10:54.086Z,9.30
2023-04-13T06:13:24.678Z,9.63
2023-04-13T06:15:55.139Z,8.55
2023-04-13T06:18:29.766Z,8.45
2023-04-13T06:21:03.096Z,8.65
2023-04-13T06:23:33.209Z,7.82
2023-04-13T06:26:05.767Z,7.13
2023-04-13T06:28:36.908Z,8.18
2023-04-13T06:31:07.659Z,7.05
2023-04-13T06:33:35.459Z,7.18
2023-04-13T06:36:06.573Z,7.53
2023-04-13T06:38:35.260Z,7.25
2023-04-13T06:41:04.790Z,7.28
2023-04-13T06:43:32.156Z,7.10
2023-04-13T06:46:02.474Z,7.00
2023-04-13T06:48:33.277Z,6.07
2023-04-13T06:51:03.474Z,6.00
2023-04-13T06:53:33.612Z,5.47
2023-04-13T06:56:06.930Z,6.28
2023-04-13T06:58:38.020Z,5.43
2023-04-13T07:01:08.711Z,5.47
2023-04-13T07:03:39.121Z,6.35
2023-04-13T07:06:10.724Z,5.60
2023-04-13T07:08:40.849Z,5.07
2023-04-13T07:11:11.736Z,5.18
2023-04-13T07:13:45.094Z,4.82
2023-04-13T07:16:16.233Z,4.45
2023-04-13T07:18:48.175Z,4.38
2023-04-13T07:21:21.867Z,4.22
2023-04-13T07:23:51.977Z,3.95
2023-04-13T07:26:22.076Z,3.70
2023-04-13T07:28:52.228Z,4.38
2023-04-13T07:31:40.970Z,4.13
2023-04-13T07:34:12.401Z,3.90
2023-04-13T07:36:46.278Z,4.38
2023-04-13T07:39:13.921Z,4.00
2023-04-13T07:41:49.260Z,3.92
2023-04-13T07:44:19.393Z,4.00
2023-04-13T07:46:49.613Z,3.03
2023-04-13T07:49:19.797Z,4.10
2023-04-13T07:51:54.527Z,3.75
2023-04-13T07:54:24.612Z,3.53
2023-04-13T07:56:56.551Z,3.22
2023-04-13T07:59:26.736Z,3.53
2023-04-13T08:01:59.903Z,3.60
2023-04-13T08:04:30.464Z,3.10
2023-04-13T08:07:07.441Z,3.10
2023-04-13T08:09:42.475Z,2.90
2023-04-13T08:12:17.536Z,2.75
2023-04-13T08:14:47.609Z,3.13
2023-04-13T08:17:17.809Z,3.30
2023-04-13T08:19:47.959Z,2.30
2023-04-13T08:22:18.773Z,2.67
2023-04-13T08:24:48.845Z,2.28
2023-04-13T08:27:17.315Z,2.30
2023-04-13T08:29:46.735Z,2.97
2023-04-13T08:32:14.166Z,2.40
2023-04-13T08:34:42.669Z,2.75
2023-04-13T08:37:12.953Z,2.08
2023-04-13T08:39:42.390Z,2.22
2023-04-13T08:42:19.285Z,2.03
2023-04-13T08:44:57.404Z,1.75
2023-04-13T08:47:29.703Z,1.90
2023-04-13T08:50:02.831Z,1.60
2023-04-13T08:52:36.868Z,1.45
2023-04-13T08:55:07.487Z,1.45
2023-04-13T08:57:39.332Z,1.83
2023-04-13T09:00:15.641Z,1.30
2023-04-13T09:03:03.013Z,1.25
2023-04-13T09:05:41.675Z,1.67
2023-04-13T09:08:14.316Z,1.42
2023-04-13T09:10:44.641Z,1.48
2023-04-13T09:13:14.828Z,1.77
2023-04-13T09:15:47.513Z,1.02
2023-04-13T09:18:18.060Z,1.40
2023-04-13T09:21:00.662Z,1.50
2023-04-13T09:23:30.854Z,1.15
2023-04-13T09:26:09.718Z,1.48
2023-04-13T09:28:54.855Z,1.60
2023-04-13T09:31:26.307Z,1.50
2023-04-13T09:33:56.574Z,1.80
2023-04-13T09:36:29.611Z,1.30
2023-04-13T09:38:58.911Z,1.38
2023-04-13T09:41:39.301Z,1.35
2023-04-13T09:44:24.637Z,1.60
2023-04-13T09:47:06.267Z,1.40
2023-04-13T09:49:43.904Z,2.60
2023-04-13T09:52:25.234Z,1.67
2023-04-13T09:54:58.984Z,0.93
2023-04-13T09:57:32.603Z,1.60
2023-04-13T10:00:01.887Z,1.42
2023-04-13T10:02:32.554Z,1.40
2023-04-13T10:05:02.997Z,1.00
2023-04-13T10:07:37.230Z,1.88
2023-04-13T10:10:08.770Z,1.70
2023-04-13T10:12:56.561Z,1.35
2023-04-13T10:15:58.616Z,1.33
2023-04-13T10:21:55.869Z,1.35
2023-04-13T10:24:29.012Z,1.05
2023-04-13T10:27:01.951Z,1.42
2023-04-13T10:29:34.267Z,1.10
2023-04-13T10:32:05.364Z,1.75
2023-04-13T10:34:38.354Z,1.13
2023-04-13T10:37:21.902Z,1.50
2023-04-13T10:40:14.646Z,1.52
2023-04-13T10:45:28.670Z,1.02
2023-04-13T10:47:58.856Z,1.63
2023-04-13T10:50:28.017Z,1.20
2023-04-13T10:53:07.873Z,1.58
2023-04-13T10:55:38.059Z,1.60
2023-04-13T10:58:17.610Z,1.40
2023-04-13T11:00:51.047Z,1.83
2023-04-13T11:03:21.916Z,1.52
2023-04-13T11:05:59.724Z,1.67
2023-04-13T11:08:28.934Z,1.45
2023-04-13T11:10:59.121Z,1.20
2023-04-13T11:13:29.960Z,1.42
2023-04-13T11:16:07.734Z,1.40
2023-04-13T11:18:37.288Z,1.40
2023-04-13T11:21:14.397Z,1.30
2023-04-13T11:23:55.518Z,1.35
2023-04-13T11:26:34.425Z,1.10
2023-04-13T11:29:05.387Z,1.15
2023-04-13T11:31:42.476Z,1.10
2023-04-13T11:34:14.094Z,1.15
2023-04-13T11:36:49.057Z,1.33
2023-04-13T11:39:19.963Z,1.17
2023-04-13T11:41:51.211Z,1.33
2023-04-13T11:44:20.010Z,1.15
2023-04-13T11:46:53.873Z,1.48
2023-04-13T11:49:24.452Z,1.75
2023-04-13T11:51:55.629Z,1.20
2023-04-13T11:54:27.398Z,1.30
2023-04-13T11:56:56.060Z,1.10
2023-04-13T11:59:28.008Z,1.13
2023-04-13T12:02:02.922Z,1.40
2023-04-13T12:04:43.703Z,1.75
2023-04-13T12:07:16.779Z,1.13
2023-04-13T12:15:15.420Z,1.23
2023-04-13T12:17:57.753Z,1.23
2023-04-13T12:23:23.579Z,1.73
2023-04-13T12:26:41.208Z,1.23
2023-04-13T12:29:04.287Z,0.95
2023-04-13T12:31:39.954Z,1.25
2023-04-13T12:34:10.153Z,1.38
2023-04-13T12:36:40.400Z,1.27
2023-04-13T12:39:09.071Z,1.58
2023-04-13T12:41:36.167Z,1.40
2023-04-13T12:44:06.337Z,1.42
2023-04-13T12:46:37.226Z,1.40
2023-04-13T12:49:06.975Z,1.33
2023-04-13T12:51:37.155Z,1.10
2023-04-13T12:54:13.265Z,1.27
2023-04-13T12:56:42.562Z,1.65
2023-04-13T12:59:12.895Z,1.30
2023-04-13T13:01:41.059Z,1.45
2023-04-13T13:04:09.635Z,1.20
2023-04-13T13:06:38.227Z,1.30
2023-04-13T13:09:07.686Z,1.20
2023-04-13T13:11:37.870Z,1.20
2023-04-13T13:14:06.731Z,1.30
2023-04-13T13:16:38.093Z,1.05
2023-04-13T13:19:08.764Z,1.10
2023-04-13T13:21:38.926Z,1.50
2023-04-13T13:24:09.212Z,1.20
2023-04-13T13:26:58.673Z,1.00
2023-04-13T13:29:33.315Z,1.23
2023-04-13T13:32:04.518Z,1.45
2023-04-13T13:34:34.792Z,1.40
2023-04-13T13:37:03.389Z,1.50
2023-04-13T13:39:32.363Z,1.33
2023-04-13T13:42:00.043Z,1.45
2023-04-13T13:44:28.370Z,1.83
2023-04-13T13:46:56.790Z,1.00
2023-04-13T13:49:25.509Z,1.20
2023-04-13T13:51:53.666Z,1.42
2023-04-13T13:54:22.903Z,1.45
2023-04-13T13:56:50.436Z,1.45
2023-04-13T13:59:19.292Z,1.30
2023-04-13T14:01:47.394Z,1.23
2023-04-13T14:04:16.080Z,1.50
2023-04-13T14:06:44.131Z,1.20
2023-04-13T14:09:12.589Z,1.67
2023-04-13T14:11:41.074Z,1.67
2023-04-13T14:14:20.414Z,1.38
2023-04-13T14:16:52.166Z,1.13
2023-04-13T14:19:22.340Z,1.35
2023-04-13T14:21:56.705Z,0.85
2023-04-13T14:24:27.373Z,2.15
2023-04-13T14:26:55.289Z,1.00
2023-04-13T14:29:23.659Z,1.02
2023-04-13T14:31:53.011Z,1.17
2023-04-13T14:34:21.069Z,1.10
2023-04-13T14:36:51.051Z,1.27
2023-04-13T14:39:20.467Z,1.15
2023-04-13T14:41:48.790Z,1.15
2023-04-13T14:44:17.420Z,1.30
2023-04-13T14:46:45.790Z,1.30
2023-04-13T14:49:16.852Z,1.05
2023-04-13T14:51:46.978Z,1.63
2023-04-13T14:54:17.117Z,0.88
2023-04-13T14:56:48.058Z,1.10
2023-04-13T14:59:18.178Z,1.20
2023-04-13T15:01:48.795Z,1.23
2023-04-13T15:04:19.913Z,1.38
2023-04-13T15:06:53.834Z,1.40
2023-04-13T15:09:24.180Z,1.02
2023-04-13T15:11:54.363Z,0.80
2023-04-13T15:14:24.466Z,1.10
2023-04-13T15:16:54.606Z,1.13
2023-04-13T15:19:24.757Z,1.08
2023-04-13T15:21:54.856Z,1.00
2023-04-13T15:24:24.996Z,1.10
2023-04-13T15:26:55.530Z,1.00
2023-04-13T15:29:26.928Z,1.25
2023-04-13T15:32:00.354Z,1.20
2023-04-13T15:34:30.813Z,0.90
2023-04-13T15:37:00.971Z,1.17
2023-04-13T15:39:31.095Z,1.08
2023-04-13T15:42:02.422Z,0.90
2023-04-13T15:44:32.516Z,1.10
2023-04-13T15:47:03.281Z,0.90
2023-04-13T15:49:33.511Z,0.90
2023-04-13T15:52:04.154Z,0.90
2023-04-13T15:54:34.391Z,1.17
2023-04-13T15:57:04.634Z,0.90
2023-04-13T15:59:34.987Z,1.02
2023-04-13T16:02:05.198Z,1.08
2023-04-13T16:04:35.628Z,1.20
2023-04-13T16:07:13.491Z,1.23
2023-04-13T16:09:45.025Z,1.02
2023-04-13T16:12:20.286Z,1.30
2023-04-13T16:14:50.428Z,1.45
2023-04-13T16:17:31.115Z,1.38
2023-04-13T16:20:14.514Z,1.50
2023-04-13T16:22:49.248Z,1.30
2023-04-13T16:25:20.490Z,1.38
2023-04-13T16:27:50.797Z,1.33
2023-04-13T16:30:21.264Z,1.10
2023-04-13T16:32:51.430Z,1.00
2023-04-13T16:35:21.608Z,1.02
2023-04-13T16:37:51.746Z,1.30
2023-04-13T16:40:22.173Z,2.08
2023-04-13T16:42:52.293Z,1.20
2023-04-13T16:45:21.880Z,1.13
2023-04-13T16:47:50.150Z,1.33
2023-04-13T16:50:17.524Z,1.10
2023-04-13T16:52:46.156Z,1.30
2023-04-13T16:55:15.160Z,1.77
2023-04-13T16:57:48.249Z,1.42
2023-04-13T17:00:18.342Z,1.30
2023-04-13T17:02:48.685Z,1.35
2023-04-13T17:05:18.975Z,1.23
2023-04-13T17:07:49.097Z,1.38
2023-04-13T17:10:19.281Z,1.50
2023-04-13T17:12:49.491Z,1.40
2023-04-13T17:15:20.418Z,1.30
2023-04-13T17:17:50.559Z,2.15
2023-04-13T17:20:23.991Z,1.42
2023-04-13T17:22:54.725Z,1.42
2023-04-13T17:25:24.944Z,1.38
2023-04-13T17:27:55.056Z,1.70
2023-04-13T17:30:25.137Z,1.50
2023-04-13T17:32:55.330Z,1.40
2023-04-13T17:35:25.423Z,1.00
2023-04-13T17:37:55.639Z,1.70
2023-04-13T17:40:26.324Z,1.23
2023-04-13T17:42:57.207Z,1.40
2023-04-13T17:45:29.926Z,1.50
2023-04-13T17:48:00.238Z,1.27
2023-04-13T17:50:35.355Z,1.55
2023-04-13T17:53:08.460Z,1.30
2023-04-13T17:55:39.920Z,1.23
2023-04-13T17:58:12.117Z,1.10
2023-04-13T18:00:42.251Z,1.42
2023-04-13T18:03:12.971Z,1.80
2023-04-13T18:05:46.277Z,1.55
2023-04-13T18:08:14.747Z,1.65
2023-04-13T18:10:43.087Z,1.33
2023-04-13T18:13:11.553Z,1.70
2023-04-13T18:15:39.919Z,1.45
2023-04-13T18:18:08.426Z,1.67
2023-04-13T18:20:36.712Z,1.70
2023-04-13T18:23:11.210Z,2.20
2023-04-13T18:25:44.128Z,1.60
2023-04-13T18:28:17.764Z,2.70
2023-04-13T18:30:48.330Z,2.08
2023-04-13T18:33:18.492Z,1.95
2023-04-13T18:35:50.573Z,2.13
2023-04-13T18:38:24.002Z,1.90
2023-04-13T18:40:56.703Z,2.00
2023-04-13T18:43:26.803Z,1.80
2023-04-13T18:45:56.937Z,1.95
2023-04-13T18:48:28.642Z,2.30
2023-04-13T18:50:58.525Z,2.30
2023-04-13T18:53:27.069Z,2.78
2023-04-13T18:55:57.430Z,2.78
2023-04-13T18:58:27.294Z,3.10
2023-04-13T19:00:56.095Z,3.10
2023-04-13T19:03:24.541Z,3.67
2023-04-13T19:05:52.201Z,3.53
2023-04-13T19:08:20.812Z,5.32
2023-04-13T19:10:49.026Z,6.35
2023-04-13T19:13:17.533Z,5.90
2023-04-13T19:15:45.911Z,6.18
2023-04-13T19:18:14.390Z,5.55
2023-04-13T19:20:42.683Z,6.00
2023-04-13T19:23:11.392Z,6.10
2023-04-13T19:25:39.765Z,6.22
2023-04-13T19:28:08.158Z,7.10
2023-04-13T19:30:36.460Z,4.75
2023-04-13T19:33:11.198Z,5.50
2023-04-13T19:35:41.698Z,5.70
2023-04-13T19:38:11.905Z,6.07
2023-04-13T19:40:42.129Z,5.70
2023-04-13T19:43:12.245Z,5.68
2023-04-13T19:45:42.743Z,6.43
2023-04-13T19:48:13.006Z,6.13
2023-04-13T19:50:45.599Z,5.82
2023-04-13T19:53:16.033Z,5.78
2023-04-13T19:55:46.370Z,7.40
2023-04-13T19:58:14.574Z,7.22
2023-04-13T20:00:47.365Z,7.07
2023-04-13T20:03:20.608Z,7.57
2023-04-13T20:05:50.900Z,7.15
2023-04-13T20:08:21.174Z,8.13
2023-04-13T20:10:51.584Z,7.00
2023-04-13T20:13:21.790Z,8.15
2023-04-13T20:15:53.875Z,7.75
2023-04-13T20:18:24.195Z,7.30
2023-04-13T20:20:57.066Z,7.18
2023-04-13T20:23:32.516Z,7.40
2023-04-13T20:26:02.755Z,9.85
2023-04-13T20:28:36.466Z,9.88
2023-04-13T20:31:07.087Z,10.18
2023-04-13T20:33:37.227Z,9.18
2023-04-13T20:36:07.533Z,10.35
2023-04-13T20:38:38.638Z,10.05
2023-04-13T20:41:10.792Z,11.65
2023-04-13T20:43:42.236Z,11.00
2023-04-13T20:46:12.367Z,11.38
2023-04-13T20:51:23.306Z,11.20
2023-04-13T20:53:52.760Z,10.38
2023-04-13T20:56:23.906Z,11.00
2023-04-13T20:58:56.271Z,11.45
2023-04-13T21:01:26.515Z,11.10
2023-04-13T21:03:56.861Z,11.38
2023-04-13T21:06:29.264Z,10.65
2023-04-13T21:08:59.593Z,10.27
2023-04-13T21:11:29.805Z,11.52
2023-04-13T21:14:00.301Z,10.95
2023-04-13T21:16:30.776Z,10.57
2023-04-13T21:19:00.952Z,11.43
2023-04-13T21:21:32.954Z,10.25
2023-04-13T21:24:04.311Z,10.40
2023-04-13T21:26:34.478Z,9.35
2023-04-13T21:29:04.647Z,11.05
2023-04-13T21:31:35.209Z,11.85
2023-04-13T21:34:05.522Z,10.85
2023-04-13T21:39:08.858Z,11.30
2023-04-13T21:41:41.654Z,11.38
2023-04-13T21:44:26.038Z,10.95
2023-04-13T21:46:59.287Z,10.38
2023-04-13T21:49:29.520Z,10.50
2023-04-13T21:51:57.847Z,10.05
2023-04-13T21:54:26.237Z,10.80
2023-04-13T21:56:54.761Z,10.77
2023-04-13T21:59:27.323Z,9.38
2023-04-13T22:01:55.332Z,9.18
2023-04-13T22:04:23.222Z,7.57
2023-04-13T22:06:51.531Z,8.20
2023-04-13T22:09:20.246Z,7.05
2023-04-13T22:11:48.488Z,7.43
2023-04-13T22:14:16.588Z,8.57
2023-04-13T22:16:45.909Z,8.20
2023-04-13T22:19:17.379Z,7.70
2023-04-13T22:21:47.570Z,7.97
2023-04-13T22:24:17.717Z,9.95
2023-04-13T22:26:51.420Z,8.00
2023-04-13T22:29:21.859Z,6.60
2023-04-13T22:31:52.101Z,6.47
2023-04-13T22:34:22.881Z,6.10
2023-04-13T22:36:53.785Z,6.97
2023-04-13T22:39:23.989Z,6.70
2023-04-13T22:41:54.110Z,7.47
2023-04-13T22:44:24.355Z,7.03
2023-04-13T22:46:55.206Z,6.53
2023-04-13T22:49:32.253Z,5.60
2023-04-13T22:52:02.409Z,6.03
2023-04-13T22:54:32.637Z,6.40
2023-04-13T22:57:05.100Z,6.72
2023-04-13T22:59:38.785Z,6.53
2023-04-13T23:02:13.524Z,7.60
2023-04-13T23:04:47.115Z,6.68
2023-04-13T23:07:17.317Z,6.60
2023-04-13T23:09:49.044Z,6.75
2023-04-13T23:12:21.829Z,6.82
2023-04-13T23:14:55.224Z,6.82
2023-04-13T23:17:25.621Z,6.70
2023-04-13T23:19:56.545Z,6.80
2023-04-13T23:22:28.263Z,6.80
2023-04-13T23:25:03.028Z,6.53
2023-04-13T23:27:33.173Z,7.53
2023-04-13T23:30:05.912Z,6.10
2023-04-13T23:32:35.666Z,6.97
2023-04-13T23:35:13.513Z,8.05
2023-04-13T23:37:45.506Z,7.47
2023-04-13T23:40:17.510Z,8.43
2023-04-13T23:42:47.715Z,7.53
2023-04-13T23:45:18.190Z,8.60
2023-04-13T23:47:46.582Z,7.72
2023-04-13T23:50:17.981Z,6.95
2023-04-13T23:52:46.335Z,8.02
2023-04-13T23:55:17.366Z,9.25
2023-04-13T23:57:47.469Z,7.97
